createdAt,value
2018-01-11T00:00:52.145Z,6.70
2018-01-11T00:01:54.619Z,6.70
2018-01-11T00:02:57.102Z,6.70
2018-01-11T00:03:59.603Z,6.70
2018-01-11T00:05:04.186Z,6.70
2018-01-11T00:06:08.201Z,6.70
2018-01-11T00:07:10.703Z,6.70
2018-01-11T00:08:13.257Z,6.70
2018-01-11T00:09:15.743Z,6.70
2018-01-11T00:10:18.223Z,6.70
2018-01-11T00:11:20.713Z,6.70
2018-01-11T00:12:23.233Z,6.70
2018-01-11T00:13:25.740Z,6.70
2018-01-11T00:14:28.214Z,6.70
2018-01-11T00:15:30.710Z,6.70
2018-01-11T00:16:33.210Z,6.70
2018-01-11T00:17:43.340Z,6.70
2018-01-11T00:18:45.833Z,6.60
2018-01-11T00:19:48.338Z,6.70
2018-01-11T00:20:50.811Z,6.60
2018-01-11T00:21:53.306Z,6.70
2018-01-11T00:22:55.783Z,6.70
2018-01-11T00:23:58.307Z,6.70
2018-01-11T00:25:00.905Z,6.60
2018-01-11T00:26:03.394Z,6.70
2018-01-11T00:27:05.885Z,6.70
2018-01-11T00:28:15.932Z,6.70
2018-01-11T00:29:18.459Z,6.60
2018-01-11T00:30:20.941Z,6.70
2018-01-11T00:31:23.409Z,6.60
2018-01-11T00:32:26.240Z,6.60
2018-01-11T00:33:29.530Z,6.60
2018-01-11T00:34:32.799Z,6.60
2018-01-11T00:35:35.316Z,6.60
2018-01-11T00:36:38.576Z,6.60
2018-01-11T00:37:41.993Z,6.50
2018-01-11T00:38:47.769Z,6.50
2018-01-11T00:39:51.030Z,6.40
2018-01-11T00:40:53.543Z,6.40
2018-01-11T00:41:56.025Z,6.40
2018-01-11T00:42:58.548Z,6.30
2018-01-11T00:44:01.129Z,6.30
2018-01-11T00:45:03.614Z,6.30
2018-01-11T00:46:06.118Z,6.30
2018-01-11T00:47:08.625Z,6.30
2018-01-11T00:48:11.853Z,6.30
2018-01-11T00:49:15.537Z,6.30
2018-01-11T00:50:24.828Z,6.40
2018-01-11T00:51:28.097Z,6.40
2018-01-11T00:52:30.971Z,6.40
2018-01-11T00:53:33.433Z,6.40
2018-01-11T00:54:35.914Z,6.40
2018-01-11T00:55:38.416Z,6.30
2018-01-11T00:56:40.915Z,6.30
2018-01-11T00:57:43.397Z,6.40
2018-01-11T00:58:46.661Z,6.30
2018-01-11T00:59:53.569Z,6.30
2018-01-11T01:00:56.048Z,6.30
2018-01-11T01:01:58.565Z,6.30
2018-01-11T01:03:01.057Z,6.30
2018-01-11T01:04:03.555Z,6.30
2018-01-11T01:05:06.068Z,6.30
2018-01-11T01:06:09.317Z,6.30
2018-01-11T01:07:11.828Z,6.30
2018-01-11T01:08:15.076Z,6.30
2018-01-11T01:09:17.546Z,6.30
2018-01-11T01:10:20.022Z,6.30
2018-01-11T01:11:27.833Z,6.30
2018-01-11T01:12:30.325Z,6.30
2018-01-11T01:13:32.805Z,6.30
2018-01-11T01:14:35.279Z,6.40
2018-01-11T01:15:37.765Z,6.40
2018-01-11T01:16:40.257Z,6.40
2018-01-11T01:17:42.748Z,6.40
2018-01-11T01:18:45.234Z,6.40
2018-01-11T01:19:47.706Z,6.40
2018-01-11T01:20:50.186Z,6.40
2018-01-11T01:21:52.679Z,6.40
2018-01-11T01:22:55.696Z,6.40
2018-01-11T01:24:01.258Z,6.40
2018-01-11T01:25:03.751Z,6.40
2018-01-11T01:26:06.214Z,6.40
2018-01-11T01:27:08.684Z,6.40
2018-01-11T01:28:11.457Z,6.40
2018-01-11T01:29:13.945Z,6.40
2018-01-11T01:30:16.453Z,6.40
2018-01-11T01:31:18.942Z,6.40
2018-01-11T01:32:22.182Z,6.40
2018-01-11T01:33:24.658Z,6.30
2018-01-11T01:34:27.131Z,6.30
2018-01-11T01:35:34.490Z,6.30
2018-01-11T01:36:37.726Z,6.30
2018-01-11T01:37:40.200Z,6.20
2018-01-11T01:38:43.461Z,6.30
2018-01-11T01:39:45.944Z,6.30
2018-01-11T01:40:48.427Z,6.30
2018-01-11T01:41:50.909Z,6.30
2018-01-11T01:42:53.393Z,6.20
2018-01-11T01:43:56.648Z,6.10
2018-01-11T01:44:59.135Z,6.10
2018-01-11T01:46:01.906Z,6.10
2018-01-11T01:47:10.742Z,6.10
2018-01-11T01:48:14.011Z,6.20
2018-01-11T01:49:17.262Z,6.20
2018-01-11T01:50:19.771Z,6.20
2018-01-11T01:51:22.244Z,6.10
2018-01-11T01:52:24.724Z,6.10
2018-01-11T01:53:27.226Z,6.10
2018-01-11T01:54:29.714Z,6.10
2018-01-11T01:55:32.211Z,6.10
2018-01-11T01:56:34.701Z,6.10
2018-01-11T01:57:42.368Z,6.10
2018-01-11T01:58:44.852Z,6.10
2018-01-11T01:59:47.321Z,6.10
2018-01-11T02:00:49.824Z,6.10
2018-01-11T02:01:52.297Z,6.10
2018-01-11T02:02:54.782Z,6.00
2018-01-11T02:03:57.264Z,6.10
2018-01-11T02:04:59.743Z,6.00
2018-01-11T02:06:02.231Z,6.00
2018-01-11T02:07:05.478Z,6.00
2018-01-11T02:08:07.960Z,6.00
2018-01-11T02:09:15.490Z,6.00
2018-01-11T02:10:17.973Z,6.00
2018-01-11T02:11:21.487Z,6.00
2018-01-11T02:12:23.996Z,6.00
2018-01-11T02:13:26.820Z,6.00
2018-01-11T02:14:29.289Z,6.00
2018-01-11T02:15:32.488Z,6.00
2018-01-11T02:16:35.030Z,6.00
2018-01-11T02:17:37.506Z,6.00
2018-01-11T02:18:39.987Z,6.00
2018-01-11T02:19:49.201Z,6.00
2018-01-11T02:20:51.721Z,5.90
2018-01-11T02:21:54.218Z,5.90
2018-01-11T02:22:56.693Z,5.90
2018-01-11T02:23:59.207Z,5.90
2018-01-11T02:25:03.272Z,5.90
2018-01-11T02:26:05.766Z,5.90
2018-01-11T02:27:08.246Z,5.90
2018-01-11T02:28:10.719Z,5.90
2018-01-11T02:29:13.215Z,5.90
2018-01-11T02:31:22.914Z,5.90
2018-01-11T02:32:25.494Z,5.90
2018-01-11T02:33:27.986Z,5.90
2018-01-11T02:34:31.237Z,5.90
2018-01-11T02:35:33.732Z,5.90
2018-01-11T02:36:36.988Z,5.90
2018-01-11T02:37:39.501Z,5.90
2018-01-11T02:38:41.985Z,5.90
2018-01-11T02:39:45.232Z,5.90
2018-01-11T02:40:47.725Z,5.90
2018-01-11T02:41:55.091Z,5.90
2018-01-11T02:42:57.574Z,5.90
2018-01-11T02:44:00.947Z,6.00
2018-01-11T02:45:03.440Z,6.00
2018-01-11T02:46:05.932Z,6.00
2018-01-11T02:47:08.414Z,6.00
2018-01-11T02:48:10.925Z,6.00
2018-01-11T02:49:13.415Z,6.00
2018-01-11T02:50:15.909Z,6.10
2018-01-11T02:51:18.398Z,6.10
2018-01-11T02:52:20.891Z,6.10
2018-01-11T02:53:28.114Z,6.10
2018-01-11T02:54:30.596Z,6.10
2018-01-11T02:55:33.093Z,6.10
2018-01-11T02:56:35.571Z,6.10
2018-01-11T02:57:38.042Z,6.10
2018-01-11T02:58:40.543Z,6.00
2018-01-11T02:59:43.796Z,6.00
2018-01-11T03:00:47.036Z,6.00
2018-01-11T03:01:49.516Z,6.00
2018-01-11T03:02:52.017Z,6.00
2018-01-11T03:03:55.633Z,6.00
2018-01-11T03:05:02.809Z,6.00
2018-01-11T03:06:05.280Z,6.00
2018-01-11T03:07:07.799Z,6.00
2018-01-11T03:08:10.291Z,5.90
2018-01-11T03:09:12.795Z,5.90
2018-01-11T03:10:16.121Z,5.80
2018-01-11T03:11:18.594Z,5.70
2018-01-11T03:12:21.097Z,5.70
2018-01-11T03:13:23.581Z,5.70
2018-01-11T03:14:26.103Z,5.70
2018-01-11T03:15:28.607Z,5.70
2018-01-11T03:16:34.899Z,5.60
2018-01-11T03:17:37.965Z,5.60
2018-01-11T03:18:40.442Z,5.60
2018-01-11T03:19:42.923Z,5.60
2018-01-11T03:20:45.403Z,5.60
2018-01-11T03:21:47.877Z,5.60
2018-01-11T03:22:50.368Z,5.60
2018-01-11T03:23:52.858Z,5.60
2018-01-11T03:24:56.194Z,5.60
2018-01-11T03:25:58.685Z,5.60
2018-01-11T03:27:01.162Z,5.60
2018-01-11T03:28:08.309Z,5.60
2018-01-11T03:29:10.788Z,5.60
2018-01-11T03:30:13.274Z,5.60
2018-01-11T03:31:15.785Z,5.60
2018-01-11T03:32:18.287Z,5.60
2018-01-11T03:33:20.788Z,5.60
2018-01-11T03:34:23.270Z,5.60
2018-01-11T03:35:26.513Z,5.60
2018-01-11T03:36:29.021Z,5.60
2018-01-11T03:37:31.492Z,5.60
2018-01-11T03:38:34.037Z,5.60
2018-01-11T03:39:40.148Z,5.60
2018-01-11T03:40:44.882Z,5.70
2018-01-11T03:41:47.962Z,5.60
2018-01-11T03:42:50.440Z,5.60
2018-01-11T03:43:52.924Z,5.60
2018-01-11T03:44:55.396Z,5.70
2018-01-11T03:45:57.887Z,5.60
2018-01-11T03:47:00.992Z,5.60
2018-01-11T03:48:03.480Z,5.60
2018-01-11T03:49:05.960Z,5.70
2018-01-11T03:50:11.416Z,5.70
2018-01-11T03:51:17.144Z,5.70
2018-01-11T03:52:19.650Z,5.70
2018-01-11T03:53:22.734Z,5.70
2018-01-11T03:54:25.206Z,5.70
2018-01-11T03:55:28.461Z,5.70
2018-01-11T03:56:30.960Z,5.70
2018-01-11T03:57:33.461Z,5.70
2018-01-11T03:58:36.726Z,5.70
2018-01-11T03:59:39.223Z,5.70
2018-01-11T04:00:41.718Z,5.70
2018-01-11T04:01:49.174Z,5.70
2018-01-11T04:02:51.694Z,5.70
2018-01-11T04:03:56.046Z,5.70
2018-01-11T04:04:58.518Z,5.70
2018-01-11T04:06:01.503Z,5.70
2018-01-11T04:07:04.751Z,5.70
2018-01-11T04:08:07.237Z,5.70
2018-01-11T04:09:09.787Z,5.70
2018-01-11T04:10:12.337Z,5.70
2018-01-11T04:11:14.822Z,5.60
2018-01-11T04:12:23.105Z,5.60
2018-01-11T04:13:25.596Z,5.60
2018-01-11T04:14:29.666Z,5.60
2018-01-11T04:15:32.150Z,5.60
2018-01-11T04:16:34.630Z,5.60
2018-01-11T04:17:37.241Z,5.60
2018-01-11T04:18:40.514Z,5.60
2018-01-11T04:19:42.956Z,5.60
2018-01-11T04:20:45.457Z,5.70
2018-01-11T04:21:47.944Z,5.60
2018-01-11T04:22:53.258Z,5.70
2018-01-11T04:23:56.783Z,5.70
2018-01-11T04:24:59.263Z,5.70
2018-01-11T04:26:01.736Z,5.70
2018-01-11T04:27:04.218Z,5.70
2018-01-11T04:28:06.690Z,5.70
2018-01-11T04:29:09.186Z,5.70
2018-01-11T04:30:11.663Z,5.60
2018-01-11T04:31:14.143Z,5.60
2018-01-11T04:32:16.687Z,5.60
2018-01-11T04:33:19.176Z,5.60
2018-01-11T04:34:21.687Z,5.60
2018-01-11T04:35:28.861Z,5.60
2018-01-11T04:36:31.380Z,5.60
2018-01-11T04:37:33.861Z,5.60
2018-01-11T04:38:36.409Z,5.60
2018-01-11T04:39:39.690Z,5.50
2018-01-11T04:40:42.793Z,5.50
2018-01-11T04:41:45.308Z,5.60
2018-01-11T04:42:47.810Z,5.60
2018-01-11T04:43:51.106Z,5.50
2018-01-11T04:44:53.598Z,5.50
2018-01-11T04:45:57.978Z,5.50
2018-01-11T04:47:03.647Z,5.50
2018-01-11T04:48:06.141Z,5.50
2018-01-11T04:49:08.641Z,5.50
2018-01-11T04:50:11.150Z,5.50
2018-01-11T04:51:14.405Z,5.50
2018-01-11T04:52:16.928Z,5.50
2018-01-11T04:53:19.421Z,5.50
2018-01-11T04:54:22.692Z,5.50
2018-01-11T04:55:25.224Z,5.50
2018-01-11T04:56:29.408Z,5.50
2018-01-11T04:57:36.859Z,5.50
2018-01-11T04:58:39.379Z,5.60
2018-01-11T04:59:41.872Z,5.60
2018-01-11T05:00:50.047Z,5.60
2018-01-11T05:01:53.311Z,5.60
2018-01-11T05:02:55.834Z,5.60
2018-01-11T05:03:58.360Z,5.60
2018-01-11T05:05:00.871Z,5.60
2018-01-11T05:06:04.588Z,5.60
2018-01-11T05:07:09.669Z,5.60
2018-01-11T05:08:12.172Z,5.60
2018-01-11T05:09:14.680Z,5.60
2018-01-11T05:10:17.172Z,5.60
2018-01-11T05:11:20.429Z,5.60
2018-01-11T05:12:22.971Z,5.60
2018-01-11T05:13:25.451Z,5.60
2018-01-11T05:14:28.751Z,5.60
2018-01-11T05:15:31.256Z,5.60
2018-01-11T05:16:34.520Z,5.60
2018-01-11T05:17:43.314Z,5.60
2018-01-11T05:18:45.856Z,5.60
2018-01-11T05:19:49.122Z,5.60
2018-01-11T05:20:51.612Z,5.60
2018-01-11T05:21:54.118Z,5.60
2018-01-11T05:22:57.381Z,5.60
2018-01-11T05:23:59.881Z,5.60
2018-01-11T05:25:03.145Z,5.60
2018-01-11T05:26:05.651Z,5.60
2018-01-11T05:27:08.926Z,5.60
2018-01-11T05:28:15.972Z,5.60
2018-01-11T05:29:18.466Z,5.60
2018-01-11T05:30:20.958Z,5.60
2018-01-11T05:31:23.453Z,5.60
2018-01-11T05:32:26.741Z,5.60
2018-01-11T05:33:29.257Z,5.60
2018-01-11T05:34:31.772Z,5.60
2018-01-11T05:35:34.288Z,5.50
2018-01-11T05:36:37.566Z,5.60
2018-01-11T05:37:40.064Z,5.50
2018-01-11T05:38:45.035Z,5.60
2018-01-11T05:39:49.297Z,5.50
2018-01-11T05:40:51.826Z,5.60
2018-01-11T05:41:54.348Z,5.60
2018-01-11T05:42:56.837Z,5.60
2018-01-11T05:43:59.329Z,5.60
2018-01-11T05:45:02.591Z,5.60
2018-01-11T05:46:05.093Z,5.60
2018-01-11T05:47:08.348Z,5.60
2018-01-11T05:48:10.860Z,5.60
2018-01-11T05:49:13.365Z,5.60
2018-01-11T05:50:16.138Z,5.60
2018-01-11T05:51:23.499Z,5.70
2018-01-11T05:52:26.021Z,5.60
2018-01-11T05:53:29.277Z,5.70
2018-01-11T05:54:31.779Z,5.70
2018-01-11T05:55:34.278Z,5.70
2018-01-11T05:56:37.584Z,5.70
2018-01-11T05:57:40.844Z,5.70
2018-01-11T05:58:44.099Z,5.70
2018-01-11T05:59:46.587Z,5.70
2018-01-11T06:00:49.440Z,5.70
2018-01-11T06:01:56.906Z,5.70
2018-01-11T06:02:59.516Z,5.70
2018-01-11T06:04:02.191Z,5.70
2018-01-11T06:05:05.448Z,5.80
2018-01-11T06:06:07.958Z,5.70
2018-01-11T06:07:10.446Z,5.80
2018-01-11T06:08:12.950Z,5.80
2018-01-11T06:09:15.473Z,5.80
2018-01-11T06:10:18.732Z,5.80
2018-01-11T06:11:21.379Z,5.80
2018-01-11T06:12:28.687Z,5.90
2018-01-11T06:13:31.176Z,5.80
2018-01-11T06:14:33.687Z,5.80
2018-01-11T06:15:36.191Z,5.90
2018-01-11T06:16:38.693Z,5.90
2018-01-11T06:17:41.191Z,5.80
2018-01-11T06:18:44.808Z,5.80
2018-01-11T06:19:47.314Z,5.80
2018-01-11T06:20:50.507Z,5.80
2018-01-11T06:21:52.991Z,5.80
2018-01-11T06:22:55.626Z,5.80
2018-01-11T06:24:02.184Z,5.70
2018-01-11T06:25:05.452Z,5.60
2018-01-11T06:26:07.953Z,5.60
2018-01-11T06:27:11.215Z,5.60
2018-01-11T06:28:13.706Z,5.60
2018-01-11T06:29:16.221Z,5.60
2018-01-11T06:30:18.734Z,5.60
2018-01-11T06:31:21.366Z,5.60
2018-01-11T06:32:24.633Z,5.70
2018-01-11T06:33:27.144Z,5.60
2018-01-11T06:34:32.554Z,5.60
2018-01-11T06:35:36.027Z,5.60
2018-01-11T06:36:38.570Z,5.60
2018-01-11T06:37:41.058Z,5.60
2018-01-11T06:38:43.543Z,5.60
2018-01-11T06:39:46.044Z,5.70
2018-01-11T06:40:48.545Z,5.70
2018-01-11T06:41:51.047Z,5.70
2018-01-11T06:42:54.298Z,5.70
2018-01-11T06:43:56.782Z,5.60
2018-01-11T06:44:59.295Z,5.70
2018-01-11T06:46:01.818Z,5.60
2018-01-11T06:47:11.303Z,5.70
2018-01-11T06:48:13.803Z,5.70
2018-01-11T06:49:17.061Z,5.70
2018-01-11T06:50:19.563Z,5.70
2018-01-11T06:51:22.064Z,5.70
2018-01-11T06:52:24.553Z,5.80
2018-01-11T06:53:27.062Z,5.80
2018-01-11T06:54:29.562Z,5.80
2018-01-11T06:55:33.088Z,5.80
2018-01-11T06:56:42.592Z,5.90
2018-01-11T06:57:45.084Z,5.80
2018-01-11T06:58:47.576Z,5.90
2018-01-11T06:59:50.845Z,5.90
2018-01-11T07:00:53.344Z,5.90
2018-01-11T07:01:56.631Z,5.90
2018-01-11T07:02:59.122Z,5.80
2018-01-11T07:04:01.612Z,5.90
2018-01-11T07:05:04.098Z,5.90
2018-01-11T07:06:06.585Z,5.90
2018-01-11T07:07:10.480Z,5.90
2018-01-11T07:08:16.075Z,5.90
2018-01-11T07:09:18.569Z,5.90
2018-01-11T07:10:21.869Z,5.90
2018-01-11T07:11:24.363Z,5.90
2018-01-11T07:12:26.882Z,5.90
2018-01-11T07:13:29.371Z,5.90
2018-01-11T07:14:31.868Z,5.90
2018-01-11T07:15:34.354Z,5.90
2018-01-11T07:16:36.851Z,5.90
2018-01-11T07:17:39.375Z,5.90
2018-01-11T07:18:41.887Z,5.90
2018-01-11T07:19:48.543Z,5.90
2018-01-11T07:20:51.031Z,5.90
2018-01-11T07:21:53.533Z,5.90
2018-01-11T07:22:56.840Z,6.00
2018-01-11T07:24:00.128Z,5.90
2018-01-11T07:25:03.388Z,6.00
2018-01-11T07:26:05.889Z,5.90
2018-01-11T07:27:08.384Z,6.00
2018-01-11T07:28:11.634Z,6.00
2018-01-11T07:29:14.133Z,6.00
2018-01-11T07:30:21.363Z,6.00
2018-01-11T07:31:23.873Z,5.90
2018-01-11T07:32:26.971Z,6.00
2018-01-11T07:33:29.473Z,5.90
2018-01-11T07:34:31.980Z,5.90
2018-01-11T07:35:34.486Z,5.90
2018-01-11T07:36:37.000Z,5.90
2018-01-11T07:37:39.491Z,5.90
2018-01-11T07:38:41.983Z,5.90
2018-01-11T07:39:45.270Z,5.90
2018-01-11T07:40:47.773Z,5.90
2018-01-11T07:41:53.765Z,5.90
2018-01-11T07:42:56.565Z,5.90
2018-01-11T07:43:59.074Z,5.90
2018-01-11T07:45:02.344Z,5.80
2018-01-11T07:46:04.851Z,5.90
2018-01-11T07:47:08.125Z,5.80
2018-01-11T07:48:10.638Z,5.80
2018-01-11T07:49:13.135Z,5.80
2018-01-11T07:50:15.667Z,5.80
2018-01-11T07:51:18.940Z,5.90
2018-01-11T07:52:21.442Z,5.90
2018-01-11T07:53:27.862Z,5.90
2018-01-11T07:54:30.334Z,5.90
2018-01-11T07:55:32.856Z,6.00
2018-01-11T07:56:36.119Z,6.00
2018-01-11T07:57:38.622Z,6.00
2018-01-11T07:58:41.887Z,6.10
2018-01-11T07:59:44.370Z,6.10
2018-01-11T08:00:46.876Z,6.10
2018-01-11T08:01:50.269Z,6.10
2018-01-11T08:02:53.552Z,6.10
2018-01-11T08:03:59.337Z,6.20
2018-01-11T08:05:03.410Z,6.20
2018-01-11T08:06:05.936Z,6.20
2018-01-11T08:07:08.806Z,6.20
2018-01-11T08:08:11.310Z,6.30
2018-01-11T08:09:13.805Z,6.30
2018-01-11T08:10:16.300Z,6.30
2018-01-11T08:11:18.799Z,6.30
2018-01-11T08:12:22.087Z,6.40
2018-01-11T08:13:24.795Z,6.40
2018-01-11T08:14:27.288Z,6.40
2018-01-11T08:15:35.086Z,6.40
2018-01-11T08:16:38.349Z,6.40
2018-01-11T08:17:40.867Z,6.40
2018-01-11T08:18:43.362Z,6.50
2018-01-11T08:19:45.858Z,6.50
2018-01-11T08:20:48.369Z,6.50
2018-01-11T08:21:50.909Z,6.50
2018-01-11T08:22:53.407Z,6.50
2018-01-11T08:23:55.920Z,6.60
2018-01-11T08:24:58.422Z,6.60
2018-01-11T08:26:01.678Z,6.60
2018-01-11T08:27:07.672Z,6.50
2018-01-11T08:28:10.194Z,6.50
2018-01-11T08:29:12.695Z,6.50
2018-01-11T08:30:15.195Z,6.50
2018-01-11T08:31:17.680Z,6.50
2018-01-11T08:32:20.206Z,6.50
2018-01-11T08:33:22.706Z,6.50
2018-01-11T08:34:25.203Z,6.40
2018-01-11T08:35:27.761Z,6.40
2018-01-11T08:36:30.989Z,6.40
2018-01-11T08:37:33.514Z,6.40
2018-01-11T08:38:36.424Z,6.40
2018-01-11T08:39:42.989Z,6.30
2018-01-11T08:40:45.491Z,6.30
2018-01-11T08:41:47.989Z,6.20
2018-01-11T08:42:50.500Z,6.30
2018-01-11T08:43:53.764Z,6.30
2018-01-11T08:44:56.272Z,6.20
2018-01-11T08:45:59.526Z,6.30
2018-01-11T08:47:02.026Z,6.20
2018-01-11T08:48:04.534Z,6.20
2018-01-11T08:49:07.057Z,6.20
2018-01-11T08:50:14.493Z,6.20
2018-01-11T08:51:17.018Z,6.30
2018-01-11T08:52:19.518Z,6.20
2018-01-11T08:53:22.029Z,6.20
2018-01-11T08:54:24.521Z,6.20
2018-01-11T08:55:27.031Z,6.30
2018-01-11T08:56:30.304Z,6.30
2018-01-11T08:57:32.866Z,6.30
2018-01-11T08:58:35.373Z,6.30
2018-01-11T08:59:37.886Z,6.30
2018-01-11T09:00:40.443Z,6.30
2018-01-11T09:01:48.229Z,6.20
2018-01-11T09:02:50.733Z,6.20
2018-01-11T09:03:53.265Z,6.30
2018-01-11T09:04:55.774Z,6.30
2018-01-11T09:05:59.038Z,6.30
2018-01-11T09:07:01.556Z,6.30
2018-01-11T09:08:04.056Z,6.30
2018-01-11T09:09:06.556Z,6.30
2018-01-11T09:10:09.159Z,6.30
2018-01-11T09:11:11.663Z,6.30
2018-01-11T09:12:14.975Z,6.30
2018-01-11T09:13:22.638Z,6.30
2018-01-11T09:14:25.142Z,6.30
2018-01-11T09:15:27.642Z,6.30
2018-01-11T09:16:30.917Z,6.30
2018-01-11T09:17:33.442Z,6.30
2018-01-11T09:18:35.928Z,6.30
2018-01-11T09:19:38.481Z,6.30
2018-01-11T09:20:41.791Z,6.30
2018-01-11T09:21:44.300Z,6.30
2018-01-11T09:22:46.803Z,6.30
2018-01-11T09:23:51.225Z,6.30
2018-01-11T09:24:56.540Z,6.30
2018-01-11T09:25:59.041Z,6.40
2018-01-11T09:27:01.547Z,6.40
2018-01-11T09:28:04.648Z,6.40
2018-01-11T09:29:07.157Z,6.50
2018-01-11T09:30:09.661Z,6.50
2018-01-11T09:31:13.824Z,6.60
2018-01-11T09:32:16.378Z,6.60
2018-01-11T09:33:18.879Z,6.60
2018-01-11T09:34:21.514Z,6.60
2018-01-11T09:35:28.355Z,6.70
2018-01-11T09:36:30.871Z,6.70
2018-01-11T09:37:33.363Z,6.70
2018-01-11T09:38:36.651Z,6.70
2018-01-11T09:39:39.157Z,6.70
2018-01-11T09:40:42.452Z,6.80
2018-01-11T09:41:45.714Z,6.80
2018-01-11T09:42:48.209Z,6.80
2018-01-11T09:43:50.702Z,6.80
2018-01-11T09:44:53.279Z,6.80
2018-01-11T09:45:56.351Z,6.80
2018-01-11T09:47:02.880Z,6.80
2018-01-11T09:48:05.392Z,6.80
2018-01-11T09:49:07.892Z,6.90
2018-01-11T09:50:10.403Z,6.90
2018-01-11T09:51:13.698Z,6.90
2018-01-11T09:52:16.974Z,7.00
2018-01-11T09:53:19.470Z,6.90
2018-01-11T09:54:21.974Z,7.00
2018-01-11T09:55:24.463Z,7.00
2018-01-11T09:56:27.009Z,7.00
2018-01-11T09:57:31.789Z,7.10
2018-01-11T09:58:37.523Z,7.10
2018-01-11T09:59:40.006Z,7.20
2018-01-11T10:00:42.509Z,7.20
2018-01-11T10:01:45.012Z,7.20
2018-01-11T10:02:47.539Z,7.20
2018-01-11T10:03:50.797Z,7.20
2018-01-11T10:04:53.291Z,7.20
2018-01-11T10:05:55.788Z,7.30
2018-01-11T10:06:58.318Z,7.30
2018-01-11T10:08:00.832Z,7.30
2018-01-11T10:09:06.976Z,7.40
2018-01-11T10:10:09.776Z,7.50
2018-01-11T10:11:12.274Z,7.60
2018-01-11T10:12:16.320Z,7.70
2018-01-11T10:13:19.627Z,7.80
2018-01-11T10:14:22.140Z,7.80
2018-01-11T10:15:24.652Z,7.90
2018-01-11T10:16:27.176Z,8.00
2018-01-11T10:17:29.677Z,8.00
2018-01-11T10:18:32.208Z,8.10
2018-01-11T10:19:34.716Z,8.10
2018-01-11T10:20:42.795Z,8.40
2018-01-11T10:21:45.288Z,8.40
2018-01-11T10:22:47.799Z,8.50
2018-01-11T10:23:51.101Z,8.60
2018-01-11T10:24:53.646Z,8.60
2018-01-11T10:25:56.156Z,8.70
2018-01-11T10:26:59.407Z,9.00
2018-01-11T10:28:01.910Z,9.00
2018-01-11T10:29:04.414Z,9.10
2018-01-11T10:30:07.681Z,9.20
2018-01-11T10:31:12.384Z,9.20
2018-01-11T10:32:16.517Z,9.20
2018-01-11T10:33:19.028Z,9.40
2018-01-11T10:34:21.526Z,9.50
2018-01-11T10:35:24.797Z,9.60
2018-01-11T10:36:27.308Z,9.60
2018-01-11T10:37:30.564Z,9.70
2018-01-11T10:38:33.071Z,9.70
2018-01-11T10:39:35.570Z,9.60
2018-01-11T10:40:38.853Z,9.70
2018-01-11T10:41:41.385Z,9.70
2018-01-11T10:42:48.792Z,9.60
2018-01-11T10:43:51.300Z,9.70
2018-01-11T10:44:53.804Z,9.80
2018-01-11T10:45:57.082Z,9.80
2018-01-11T10:46:59.591Z,9.80
2018-01-11T10:48:02.851Z,9.80
2018-01-11T10:49:05.338Z,9.80
2018-01-11T10:50:07.874Z,9.90
2018-01-11T10:51:10.380Z,10.00
2018-01-11T10:52:12.896Z,10.10
2018-01-11T10:53:15.391Z,10.00
2018-01-11T10:54:22.623Z,10.00
2018-01-11T10:55:25.152Z,10.10
2018-01-11T10:56:27.650Z,10.10
2018-01-11T10:57:30.156Z,10.20
2018-01-11T10:58:32.659Z,10.20
2018-01-11T10:59:35.163Z,10.10
2018-01-11T11:00:43.290Z,9.90
2018-01-11T11:01:53.784Z,10.00
2018-01-11T11:02:57.032Z,9.90
2018-01-11T11:03:59.527Z,9.90
2018-01-11T11:05:02.037Z,9.90
2018-01-11T11:06:05.330Z,10.10
2018-01-11T11:07:08.589Z,10.10
2018-01-11T11:08:11.105Z,10.10
2018-01-11T11:09:14.398Z,10.10
2018-01-11T11:10:17.667Z,10.20
2018-01-11T11:11:20.167Z,10.20
2018-01-11T11:12:28.058Z,10.20
2018-01-11T11:13:30.606Z,10.10
2018-01-11T11:14:33.100Z,10.10
2018-01-11T11:15:35.599Z,10.20
2018-01-11T11:16:38.904Z,10.30
2018-01-11T11:17:42.178Z,10.40
2018-01-11T11:18:45.613Z,10.50
2018-01-11T11:19:48.103Z,10.40
2018-01-11T11:20:50.647Z,10.50
2018-01-11T11:21:53.158Z,10.60
2018-01-11T11:23:02.128Z,10.60
2018-01-11T11:24:04.608Z,10.60
2018-01-11T11:25:07.125Z,10.50
2018-01-11T11:26:09.614Z,10.50
2018-01-11T11:27:12.162Z,10.50
2018-01-11T11:28:14.663Z,10.50
2018-01-11T11:29:17.910Z,10.70
2018-01-11T11:30:20.401Z,10.60
2018-01-11T11:31:23.771Z,10.70
2018-01-11T11:32:26.468Z,10.80
2018-01-11T11:33:33.311Z,10.80
2018-01-11T11:34:36.573Z,10.80
2018-01-11T11:35:39.116Z,10.80
2018-01-11T11:36:41.611Z,10.80
2018-01-11T11:37:44.102Z,10.80
2018-01-11T11:38:46.625Z,10.80
2018-01-11T11:39:50.236Z,10.90
2018-01-11T11:40:52.727Z,10.90
2018-01-11T11:41:56.032Z,10.90
2018-01-11T11:42:58.528Z,10.90
2018-01-11T11:44:01.044Z,11.00
2018-01-11T11:45:09.479Z,10.90
2018-01-11T11:46:11.973Z,10.90
2018-01-11T11:47:14.457Z,11.00
2018-01-11T11:48:16.952Z,10.90
2018-01-11T11:49:19.510Z,10.80
2018-01-11T11:50:23.114Z,10.80
2018-01-11T11:51:26.372Z,10.70
2018-01-11T11:52:28.881Z,10.70
2018-01-11T11:53:32.124Z,10.80
2018-01-11T11:54:37.734Z,10.80
2018-01-11T11:55:41.745Z,10.80
2018-01-11T11:56:45.015Z,10.60
2018-01-11T11:57:47.498Z,10.60
2018-01-11T11:58:50.754Z,10.70
2018-01-11T11:59:53.264Z,10.70
2018-01-11T12:00:55.755Z,10.70
2018-01-11T12:01:58.258Z,10.60
2018-01-11T12:03:01.498Z,10.70
2018-01-11T12:04:03.981Z,10.60
2018-01-11T12:05:06.483Z,10.60
2018-01-11T12:06:15.860Z,10.60
2018-01-11T12:07:18.363Z,10.60
2018-01-11T12:08:20.862Z,10.50
2018-01-11T12:09:23.352Z,10.60
2018-01-11T12:10:25.854Z,10.50
2018-01-11T12:11:28.326Z,10.50
2018-01-11T12:12:30.804Z,10.50
2018-01-11T12:13:33.295Z,10.50
2018-01-11T12:14:35.794Z,10.50
2018-01-11T12:15:38.349Z,10.50
2018-01-11T12:17:48.844Z,10.40
2018-01-11T12:18:51.338Z,10.40
2018-01-11T12:19:54.720Z,10.40
2018-01-11T12:20:57.222Z,10.40
2018-01-11T12:21:59.710Z,10.40
2018-01-11T12:23:02.214Z,10.40
2018-01-11T12:24:05.457Z,10.40
2018-01-11T12:25:07.966Z,10.40
2018-01-11T12:26:10.490Z,10.50
2018-01-11T12:27:13.002Z,10.50
2018-01-11T12:28:20.528Z,10.50
2018-01-11T12:29:23.798Z,10.40
2018-01-11T12:30:26.293Z,10.40
2018-01-11T12:31:28.790Z,10.40
2018-01-11T12:32:32.070Z,10.50
2018-01-11T12:33:34.559Z,10.50
2018-01-11T12:34:37.058Z,10.50
2018-01-11T12:35:40.353Z,10.50
2018-01-11T12:36:42.844Z,10.50
2018-01-11T12:37:46.109Z,10.60
2018-01-11T12:38:52.796Z,10.50
2018-01-11T12:39:55.325Z,10.60
2018-01-11T12:40:57.828Z,10.60
2018-01-11T12:42:00.325Z,10.60
2018-01-11T12:43:02.844Z,10.50
2018-01-11T12:44:05.344Z,10.50
2018-01-11T12:45:07.825Z,10.60
2018-01-11T12:46:10.327Z,10.60
2018-01-11T12:47:12.809Z,10.50
2018-01-11T12:48:15.309Z,10.30
2018-01-11T12:49:17.825Z,10.30
2018-01-11T12:50:20.306Z,10.30
2018-01-11T12:51:26.734Z,10.30
2018-01-11T12:52:29.268Z,10.30
2018-01-11T12:53:31.785Z,10.30
2018-01-11T12:54:35.037Z,10.30
2018-01-11T12:55:37.529Z,10.30
2018-01-11T12:56:40.019Z,10.20
2018-01-11T12:57:42.542Z,10.20
2018-01-11T12:58:45.090Z,10.20
2018-01-11T12:59:47.598Z,10.20
2018-01-11T13:00:50.865Z,10.10
2018-01-11T13:01:54.112Z,10.00
2018-01-11T13:03:04.498Z,10.00
2018-01-11T13:04:06.984Z,10.00
2018-01-11T13:05:09.482Z,9.80
2018-01-11T13:06:11.967Z,9.70
2018-01-11T13:07:14.470Z,9.60
2018-01-11T13:08:17.758Z,9.50
2018-01-11T13:09:20.992Z,9.60
2018-01-11T13:10:24.200Z,9.60
2018-01-11T13:11:26.693Z,9.50
2018-01-11T13:12:35.867Z,9.50
2018-01-11T13:13:39.112Z,9.50
2018-01-11T13:14:41.625Z,9.50
2018-01-11T13:15:44.137Z,9.60
2018-01-11T13:16:46.619Z,9.50
2018-01-11T13:17:49.109Z,9.40
2018-01-11T13:18:51.594Z,9.40
2018-01-11T13:19:54.096Z,9.30
2018-01-11T13:20:56.589Z,9.20
2018-01-11T13:21:59.848Z,9.20
2018-01-11T13:23:08.858Z,9.20
2018-01-11T13:24:11.355Z,9.20
2018-01-11T13:25:13.825Z,9.20
2018-01-11T13:26:16.381Z,9.20
2018-01-11T13:27:18.868Z,9.20
2018-01-11T13:28:21.360Z,9.20
2018-01-11T13:29:23.854Z,9.30
2018-01-11T13:30:26.357Z,9.30
2018-01-11T13:31:28.861Z,9.20
2018-01-11T13:32:31.346Z,9.20
2018-01-11T13:33:34.093Z,9.20
2018-01-11T13:44:21.701Z,9.10
2018-01-11T13:45:24.958Z,9.30
2018-01-11T13:46:29.009Z,9.30
2018-01-11T13:47:31.515Z,9.30
2018-01-11T13:48:34.866Z,9.30
2018-01-11T13:49:37.379Z,9.30
2018-01-11T13:50:44.785Z,9.30
2018-01-11T13:51:48.102Z,9.10
2018-01-11T13:52:52.391Z,9.10
2018-01-11T13:53:55.176Z,9.20
2018-01-11T13:54:58.950Z,9.20
2018-01-11T13:56:02.258Z,9.20
2018-01-11T13:57:04.850Z,9.20
2018-01-11T13:58:07.628Z,9.20
2018-01-11T13:59:10.253Z,9.30
2018-01-11T14:00:15.901Z,9.30
2018-01-11T14:01:20.171Z,9.30
2018-01-11T14:02:22.736Z,9.40
2018-01-11T14:03:25.230Z,9.30
2018-01-11T14:04:29.240Z,9.40
2018-01-11T14:05:32.934Z,9.30
2018-01-11T14:06:35.485Z,9.30
2018-01-11T14:07:38.795Z,9.30
2018-01-11T14:08:41.301Z,9.30